Bancroft, Michigan
Current Conditions -  °F | °C
As of 5:15 AM on Thursday 29 Jan 2015 (Local Time) from KRNP Reporting Station
Light Snow Light Snow  
Wind Chill: 19°   Ceiling: 4600
Heat Index: 28°   Visibility: 7mi
Dew Point: 20°   Wind: 9mph
Humidity: 72%   Direction: 140°SE
Pressure: 29.84"   Gusts: NA
Location:  42.88°N, 84.06°W
Report Text: KRNP 291015Z AUTO 14008KT 7SM -SN SCT039 OVC046 M02/M07 A2984 RMK AO2 T10221067
Loading
Personal Weather Stations






























Interactive Weather Map New forecast layout! Learn more

10-Day Weather Forecast

Advertisements
Track Severe Weather on mobile